Time;durP1;ratioP1;P1;durP2;ratioP2;P2;SDS_P1;SDS_P2;PMS_P1;PMS_P2;Temp;Humidity;BMP_temperature;BMP_pressure;BME280_temperature;BME280_humidity;BME280_pressure;Samples;Min_cycle;Max_cycle;Signal;HPM_P1;HPM_P2
2021/09/04 00:01:20;;;;;;;2.63;0.80;;;;;;;10.01;100.00;101324.78;4979121;28;20054;-83
2021/09/04 00:03:53;;;;;;;1.25;0.60;;;;;;;10.00;100.00;101326.72;4975198;28;20043;-83
2021/09/04 00:06:26;;;;;;;0.95;0.70;;;;;;;9.95;100.00;101328.56;4988733;28;20403;-83
2021/09/04 00:09:01;;;;;;;1.30;0.70;;;;;;;9.92;100.00;101323.66;4984347;28;20057;-83
2021/09/04 00:11:35;;;;;;;1.30;0.70;;;;;;;9.92;100.00;101320.94;4983495;28;20054;-83
2021/09/04 00:14:07;;;;;;;1.08;0.60;;;;;;;9.87;100.00;101318.97;4995131;28;20058;-83
2021/09/04 00:16:40;;;;;;;1.55;0.68;;;;;;;9.91;100.00;101330.16;4999827;28;20047;-83
2021/09/04 00:19:14;;;;;;;1.52;0.80;;;;;;;9.89;100.00;101311.41;4986950;28;20061;-83
2021/09/04 00:21:47;;;;;;;3.60;0.70;;;;;;;9.86;100.00;101315.44;4982737;28;20065;-83
2021/09/04 00:24:20;;;;;;;0.75;0.60;;;;;;;9.78;100.00;101315.94;4991329;28;20422;-83
2021/09/04 00:26:49;;;;;;;1.42;0.80;;;;;;;9.74;100.00;101322.97;4980264;28;20049;-84
2021/09/04 00:29:23;;;;;;;1.85;0.80;;;;;;;9.71;100.00;101309.88;4987629;28;20058;-83
2021/09/04 00:31:57;;;;;;;2.08;0.80;;;;;;;9.72;100.00;101307.97;4988728;28;20046;-83
2021/09/04 00:34:25;;;;;;;2.28;0.90;;;;;;;9.71;100.00;101312.59;4979516;28;20058;-83
2021/09/04 00:36:58;;;;;;;1.20;0.60;;;;;;;9.75;100.00;101313.72;4988348;28;20501;-83
2021/09/04 00:39:32;;;;;;;1.73;0.68;;;;;;;9.66;100.00;101323.44;4980857;28;20058;-83
2021/09/04 00:42:05;;;;;;;1.33;0.70;;;;;;;9.57;100.00;101312.22;4991488;28;20069;-83
2021/09/04 00:44:40;;;;;;;1.58;0.70;;;;;;;9.65;100.00;101316.34;4987833;28;20047;-83
2021/09/04 00:47:13;;;;;;;1.05;0.70;;;;;;;9.64;100.00;101317.41;4990082;28;20057;-83
2021/09/04 00:49:41;;;;;;;2.55;0.80;;;;;;;9.63;100.00;101310.34;4979034;28;20050;-83
2021/09/04 00:52:16;;;;;;;1.88;0.70;;;;;;;9.55;100.00;101322.50;4986550;28;20057;-82
2021/09/04 00:54:50;;;;;;;1.15;0.77;;;;;;;9.53;100.00;101324.66;4983703;28;20042;-82
2021/09/04 00:57:23;;;;;;;0.63;0.63;;;;;;;9.46;100.00;101315.88;4987491;28;20046;-84
2021/09/04 00:59:58;;;;;;;2.15;0.68;;;;;;;9.47;100.00;101315.66;4973984;28;20073;-83
2021/09/04 01:02:32;;;;;;;1.48;0.73;;;;;;;9.45;100.00;101311.56;4981627;28;20042;-83
2021/09/04 01:05:07;;;;;;;0.70;0.70;;;;;;;9.45;100.00;101323.22;4981843;28;20174;-83
2021/09/04 01:07:42;;;;;;;2.35;0.80;;;;;;;9.40;100.00;101325.88;4988255;28;20049;-84
2021/09/04 01:10:16;;;;;;;1.40;0.70;;;;;;;9.47;100.00;101326.53;4982956;28;20043;-83
2021/09/04 01:12:49;;;;;;;2.10;0.60;;;;;;;9.42;100.00;101331.91;4985300;28;20042;-83
2021/09/04 01:15:24;;;;;;;1.27;0.73;;;;;;;9.35;100.00;101321.22;4986347;28;20042;-82
2021/09/04 01:18:00;;;;;;;1.98;0.73;;;;;;;9.35;100.00;101320.41;4989108;28;20065;-83
2021/09/04 01:20:34;;;;;;;1.35;0.65;;;;;;;9.33;100.00;101319.84;4986212;28;20049;-83
2021/09/04 01:23:07;;;;;;;1.27;0.68;;;;;;;9.35;100.00;101329.38;4976122;28;20058;-83
2021/09/04 01:25:42;;;;;;;0.65;0.65;;;;;;;9.22;100.00;101324.34;4975465;28;20053;-83
2021/09/04 01:28:16;;;;;;;1.33;0.70;;;;;;;9.24;100.00;101324.91;4987657;28;20077;-84
2021/09/04 01:30:50;;;;;;;1.15;0.65;;;;;;;9.16;100.00;101331.59;4982028;28;20050;-83
2021/09/04 01:33:29;;;;;;;2.25;0.70;;;;;;;9.14;100.00;101339.22;4985613;28;20059;-84
2021/09/04 01:36:02;;;;;;;1.85;0.80;;;;;;;9.12;100.00;101329.66;4989624;28;20050;-83
2021/09/04 01:38:36;;;;;;;2.22;0.85;;;;;;;9.08;100.00;101331.25;4987053;28;20073;-83
2021/09/04 01:41:10;;;;;;;2.22;0.85;;;;;;;9.17;100.00;101335.97;4989482;28;20050;-82
2021/09/04 01:43:44;;;;;;;2.30;0.70;;;;;;;9.07;100.00;101329.59;4977441;28;20758;-84
2021/09/04 01:46:12;;;;;;;1.30;0.70;;;;;;;9.18;100.00;101332.19;4989029;28;20054;-83
2021/09/04 01:48:46;;;;;;;2.25;0.70;;;;;;;8.97;100.00;101331.09;4983595;28;20061;-83
2021/09/04 01:51:19;;;;;;;1.75;0.80;;;;;;;9.02;100.00;101333.09;4982808;28;20055;-84
2021/09/04 01:53:47;;;;;;;1.02;0.50;;;;;;;9.07;100.00;101326.88;4978814;28;20054;-83
2021/09/04 01:56:21;;;;;;;1.23;0.80;;;;;;;9.05;100.00;101321.72;4990151;28;20043;-82
2021/09/04 01:58:55;;;;;;;1.40;0.60;;;;;;;9.01;100.00;101317.88;4981659;28;20050;-83
2021/09/04 02:01:28;;;;;;;1.10;0.60;;;;;;;8.96;100.00;101320.50;4994101;28;20474;-83
2021/09/04 02:04:01;;;;;;;0.85;0.52;;;;;;;9.04;100.00;101320.06;4988612;28;20047;-83
2021/09/04 02:06:34;;;;;;;0.85;0.70;;;;;;;8.97;100.00;101314.81;4988217;28;20431;-83
2021/09/04 02:09:08;;;;;;;2.00;0.63;;;;;;;9.00;100.00;101317.06;5001145;28;20042;-83
2021/09/04 02:11:41;;;;;;;1.48;0.70;;;;;;;8.92;100.00;101320.22;4988696;28;20051;-83
2021/09/04 02:14:10;;;;;;;2.03;0.63;;;;;;;8.87;100.00;101311.19;4986751;28;20057;-83
2021/09/04 02:16:43;;;;;;;0.82;0.52;;;;;;;8.93;100.00;101310.16;4979949;28;20062;-83
2021/09/04 02:19:13;;;;;;;0.65;0.60;;;;;;;8.93;100.00;101316.41;4990286;28;20050;-83
2021/09/04 02:21:42;;;;;;;1.15;0.63;;;;;;;8.91;100.00;101310.41;4981968;28;20375;-83
2021/09/04 02:24:18;;;;;;;1.55;0.70;;;;;;;8.91;100.00;101315.84;4991644;28;20046;-83
2021/09/04 02:26:46;;;;;;;1.48;0.60;;;;;;;8.89;100.00;101312.56;4987995;28;20054;-83
2021/09/04 02:29:21;;;;;;;1.27;0.60;;;;;;;8.79;100.00;101313.25;4992288;28;20046;-82
2021/09/04 02:31:55;;;;;;;1.10;0.60;;;;;;;8.82;100.00;101311.94;4989422;28;20042;-83
2021/09/04 02:34:28;;;;;;;1.95;0.65;;;;;;;8.85;100.00;101308.69;4993534;28;20066;-83
2021/09/04 02:37:02;;;;;;;0.95;0.52;;;;;;;8.87;100.00;101300.34;4987949;28;20054;-83
2021/09/04 02:39:36;;;;;;;0.50;0.50;;;;;;;8.91;100.00;101305.00;4991849;28;20422;-83
2021/09/04 02:42:10;;;;;;;1.35;0.70;;;;;;;8.90;100.00;101299.81;4996750;28;20054;-82
2021/09/04 02:44:47;;;;;;;1.00;0.60;;;;;;;9.00;100.00;101298.03;4981818;28;20539;-83
2021/09/04 02:47:20;;;;;;;0.60;0.50;;;;;;;8.96;100.00;101296.91;4982474;28;20061;-83
2021/09/04 02:49:55;;;;;;;1.52;0.70;;;;;;;8.99;100.00;101295.56;4984898;28;20042;-83
2021/09/04 02:52:29;;;;;;;0.68;0.40;;;;;;;8.90;100.00;101294.38;4986824;28;20062;-83
2021/09/04 02:55:02;;;;;;;0.85;0.60;;;;;;;8.92;100.00;101295.78;5003090;28;20578;-83
2021/09/04 02:57:36;;;;;;;0.50;0.50;;;;;;;8.88;100.00;101294.66;4988976;28;20050;-83
2021/09/04 03:00:13;;;;;;;1.05;0.57;;;;;;;8.99;100.00;101296.41;4980090;28;20560;-83
2021/09/04 03:02:48;;;;;;;1.80;0.70;;;;;;;9.02;100.00;101292.34;4986519;28;20502;-83
2021/09/04 03:05:21;;;;;;;0.90;0.50;;;;;;;9.02;100.00;101292.34;4987358;28;20537;-83
2021/09/04 03:07:55;;;;;;;0.70;0.60;;;;;;;9.00;100.00;101300.75;4985250;28;20050;-83
2021/09/04 03:10:29;;;;;;;0.95;0.60;;;;;;;9.08;100.00;101301.38;4990009;28;20053;-83
2021/09/04 03:13:04;;;;;;;1.75;0.60;;;;;;;9.09;100.00;101298.41;4985203;28;20038;-83
2021/09/04 03:15:39;;;;;;;2.50;0.65;;;;;;;9.21;100.00;101305.59;4987862;28;20050;-83
2021/09/04 03:18:09;;;;;;;1.65;0.75;;;;;;;9.23;100.00;101304.25;4985932;28;20042;-82
2021/09/04 03:20:42;;;;;;;0.60;0.60;;;;;;;9.31;100.00;101305.72;4986608;28;20051;-83
2021/09/04 03:23:10;;;;;;;1.48;0.60;;;;;;;9.28;100.00;101288.03;4985716;28;20050;-83
2021/09/04 03:25:45;;;;;;;1.63;0.60;;;;;;;9.35;100.00;101302.22;4987342;28;20053;-83
2021/09/04 03:28:19;;;;;;;1.38;0.70;;;;;;;9.39;100.00;101302.53;4982397;28;20050;-82
2021/09/04 03:30:54;;;;;;;1.55;0.60;;;;;;;9.45;100.00;101303.41;4984569;28;20123;-84
2021/09/04 03:33:27;;;;;;;1.02;0.50;;;;;;;9.49;100.00;101301.81;4985592;28;20050;-82
2021/09/04 03:36:01;;;;;;;0.55;0.50;;;;;;;9.51;100.00;101305.91;4983107;28;20046;-83
2021/09/04 03:38:30;;;;;;;1.65;0.68;;;;;;;9.53;100.00;101308.38;4984933;28;20518;-83
2021/09/04 03:41:04;;;;;;;0.65;0.60;;;;;;;9.57;100.00;101298.63;4991062;28;20490;-83
2021/09/04 03:43:39;;;;;;;2.40;0.70;;;;;;;9.73;100.00;101302.28;4981709;28;20051;-82
2021/09/04 03:46:09;;;;;;;0.90;0.50;;;;;;;9.75;100.00;101302.84;4990826;28;20902;-83
2021/09/04 03:48:43;;;;;;;0.70;0.50;;;;;;;9.79;100.00;101300.41;4983010;28;20042;-83
2021/09/04 03:51:16;;;;;;;0.50;0.50;;;;;;;9.80;100.00;101294.72;4990661;28;20049;-84
2021/09/04 03:53:50;;;;;;;0.55;0.50;;;;;;;9.80;100.00;101304.78;4987342;28;20050;-83
2021/09/04 03:56:24;;;;;;;2.05;0.90;;;;;;;9.83;100.00;101298.81;4988781;28;20438;-83
2021/09/04 03:58:57;;;;;;;1.77;0.75;;;;;;;9.84;100.00;101295.03;4983527;28;20049;-83
2021/09/04 04:01:33;;;;;;;0.90;0.65;;;;;;;9.92;100.00;101296.47;4998262;28;20054;-83
2021/09/04 04:04:07;;;;;;;1.02;0.63;;;;;;;9.90;100.00;101291.25;4982447;28;20043;-83
2021/09/04 04:06:41;;;;;;;1.45;0.65;;;;;;;9.93;100.00;101300.81;4983251;28;20038;-83
2021/09/04 04:09:14;;;;;;;1.02;0.60;;;;;;;9.93;100.00;101292.66;4981263;28;20050;-83
2021/09/04 04:11:48;;;;;;;0.77;0.50;;;;;;;9.95;100.00;101293.22;4980600;28;20510;-82
2021/09/04 04:14:21;;;;;;;1.50;0.65;;;;;;;9.97;100.00;101297.31;4979223;28;20051;-83
2021/09/04 04:16:56;;;;;;;1.20;0.60;;;;;;;9.98;100.00;101306.28;4983083;28;20402;-83
2021/09/04 04:19:30;;;;;;;1.08;0.63;;;;;;;10.03;100.00;101304.44;4991402;28;20058;-83
2021/09/04 04:22:04;;;;;;;1.15;0.70;;;;;;;10.02;100.00;101300.06;4981084;28;20054;-82
2021/09/04 04:24:39;;;;;;;1.23;0.70;;;;;;;10.07;100.00;101298.47;4977398;28;20050;-83
2021/09/04 04:27:12;;;;;;;2.20;0.70;;;;;;;10.06;100.00;101291.41;4981885;28;20050;-83
2021/09/04 04:29:46;;;;;;;1.17;0.60;;;;;;;10.12;100.00;101295.78;4988519;28;20038;-83
2021/09/04 04:32:23;;;;;;;0.80;0.60;;;;;;;10.15;100.00;101295.25;4985718;28;20427;-83
2021/09/04 04:34:57;;;;;;;0.88;0.60;;;;;;;10.18;100.00;101295.56;4983574;28;20045;-83
2021/09/04 04:37:34;;;;;;;1.85;0.70;;;;;;;10.12;100.00;101295.78;4984402;28;20054;-84
2021/09/04 04:40:09;;;;;;;0.88;0.60;;;;;;;10.21;100.00;101303.19;4990388;28;20471;-83
2021/09/04 04:42:42;;;;;;;1.17;0.60;;;;;;;10.24;100.00;101301.03;4988891;28;20065;-83
2021/09/04 04:45:15;;;;;;;0.82;0.65;;;;;;;10.24;100.00;101301.03;4989280;28;20065;-82
2021/09/04 04:47:50;;;;;;;0.80;0.80;;;;;;;10.19;100.00;101294.47;4987213;28;20047;-82
2021/09/04 04:50:24;;;;;;;1.10;0.70;;;;;;;10.26;100.00;101294.25;4982339;28;20058;-83
2021/09/04 04:52:57;;;;;;;1.65;0.70;;;;;;;10.31;100.00;101291.56;4983825;28;20043;-83
2021/09/04 04:55:25;;;;;;;1.52;0.77;;;;;;;10.31;100.00;101299.72;4989620;28;20061;-83
2021/09/04 04:57:59;;;;;;;1.05;0.60;;;;;;;10.32;100.00;101300.53;4980549;28;20043;-83
2021/09/04 05:00:32;;;;;;;1.17;0.70;;;;;;;10.31;100.00;101291.56;4989536;28;20038;-84
2021/09/04 05:03:07;;;;;;;1.50;0.82;;;;;;;10.42;100.00;101297.91;5000169;28;20070;-83
2021/09/04 05:05:41;;;;;;;2.15;0.70;;;;;;;10.44;100.00;101295.75;4983691;28;20055;-84
2021/09/04 05:08:14;;;;;;;2.05;0.82;;;;;;;10.44;100.00;101298.47;4983603;28;20051;-83
2021/09/04 05:10:49;;;;;;;1.48;0.70;;;;;;;10.51;100.00;101301.78;4978177;28;20714;-84
2021/09/04 05:13:23;;;;;;;1.40;0.60;;;;;;;10.55;100.00;101296.63;4978117;28;20072;-84
2021/09/04 05:15:52;;;;;;;0.60;0.50;;;;;;;10.60;100.00;101296.63;4987022;28;20053;-83
2021/09/04 05:18:27;;;;;;;1.25;0.80;;;;;;;10.61;100.00;101301.00;4983468;28;20055;-83
2021/09/04 05:21:01;;;;;;;0.82;0.65;;;;;;;10.64;100.00;101295.03;4978073;28;20042;-83
2021/09/04 05:23:35;;;;;;;1.15;0.70;;;;;;;10.62;100.00;101294.47;4999794;28;20046;-83
2021/09/04 05:26:10;;;;;;;0.88;0.50;;;;;;;10.69;100.00;101297.78;4980239;28;20503;-83
2021/09/04 05:28:43;;;;;;;1.08;0.60;;;;;;;10.70;100.00;101296.69;4983334;28;20398;-84
2021/09/04 05:31:17;;;;;;;0.75;0.70;;;;;;;10.71;100.00;101301.03;4988822;28;20393;-83
2021/09/04 05:33:52;;;;;;;2.03;0.70;;;;;;;10.77;100.00;101301.06;4991405;28;20061;-83
2021/09/04 05:36:25;;;;;;;2.22;0.73;;;;;;;10.81;100.00;101299.44;4986301;28;20049;-84
2021/09/04 05:38:58;;;;;;;1.65;0.70;;;;;;;10.82;100.00;101298.38;4983938;28;20475;-84
2021/09/04 05:41:32;;;;;;;1.48;0.65;;;;;;;10.91;100.00;101304.94;4981254;28;20491;-83
2021/09/04 05:44:05;;;;;;;0.80;0.50;;;;;;;10.95;100.00;101297.06;4982060;28;20039;-84
2021/09/04 05:46:39;;;;;;;1.42;0.60;;;;;;;10.98;100.00;101296.50;4998627;28;20511;-84
2021/09/04 05:49:14;;;;;;;1.02;0.50;;;;;;;11.01;100.00;101309.63;4982480;28;20391;-84
2021/09/04 05:51:47;;;;;;;1.63;0.68;;;;;;;11.00;100.00;101299.81;4977819;28;20042;-84
2021/09/04 05:54:20;;;;;;;1.30;0.73;;;;;;;11.00;100.00;101300.59;4985652;28;20060;-83
2021/09/04 05:56:53;;;;;;;0.70;0.60;;;;;;;11.06;100.00;101301.44;4982457;28;20051;-84
2021/09/04 05:59:26;;;;;;;1.08;0.60;;;;;;;11.09;100.00;101308.25;4990102;28;20046;-84
2021/09/04 06:02:02;;;;;;;1.63;0.80;;;;;;;11.15;100.00;101299.03;4990623;28;20042;-84
2021/09/04 06:04:37;;;;;;;0.60;0.60;;;;;;;11.22;100.00;101302.31;4989295;28;20058;-84
2021/09/04 06:07:10;;;;;;;1.48;0.60;;;;;;;11.23;100.00;101295.78;4987379;28;20059;-84
2021/09/04 06:09:43;;;;;;;1.25;0.60;;;;;;;11.29;100.00;101304.78;4991827;28;20432;-83
2021/09/04 06:12:16;;;;;;;1.65;0.70;;;;;;;11.28;100.00;101297.69;4987882;28;20731;-83
2021/09/04 06:14:49;;;;;;;0.70;0.60;;;;;;;11.35;100.00;101292.78;4991969;28;20050;-83
2021/09/04 06:17:18;;;;;;;1.55;0.70;;;;;;;11.43;99.85;101303.16;4990342;28;20494;-83
2021/09/04 06:19:52;;;;;;;1.02;0.60;;;;;;;11.53;100.00;101308.66;4990528;28;20046;-84
2021/09/04 06:22:26;;;;;;;1.33;0.70;;;;;;;11.53;99.76;101305.91;4989938;28;20050;-84
2021/09/04 06:24:59;;;;;;;1.65;0.80;;;;;;;11.55;98.56;101302.91;5002632;28;20506;-84
2021/09/04 06:27:33;;;;;;;0.80;0.70;;;;;;;11.63;97.46;101307.00;4982964;28;20057;-84
2021/09/04 06:30:08;;;;;;;1.40;0.80;;;;;;;11.71;98.40;101298.28;4985917;28;20046;-83
2021/09/04 06:32:41;;;;;;;1.05;0.80;;;;;;;11.76;98.40;101303.75;4987160;28;20114;-84
2021/09/04 06:35:16;;;;;;;1.77;0.90;;;;;;;11.81;96.57;101292.03;4986516;28;20081;-84
2021/09/04 06:37:52;;;;;;;0.57;0.57;;;;;;;11.86;93.70;101287.41;4987462;28;20057;-84
2021/09/04 06:40:26;;;;;;;1.40;0.70;;;;;;;11.91;96.02;101295.56;4989895;28;20069;-83
2021/09/04 06:42:59;;;;;;;1.42;0.80;;;;;;;11.91;93.97;101287.38;4976792;28;20403;-84
2021/09/04 06:45:32;;;;;;;1.25;0.75;;;;;;;11.97;94.46;101301.84;4989919;28;20050;-84
2021/09/04 06:48:06;;;;;;;0.90;0.70;;;;;;;12.06;95.37;101285.75;4993036;28;20050;-83
2021/09/04 06:50:35;;;;;;;0.60;0.60;;;;;;;12.15;94.83;101295.03;4990158;28;20061;-84
2021/09/04 06:53:04;;;;;;;2.50;0.90;;;;;;;12.19;93.55;101296.13;4993995;28;20046;-84
2021/09/04 06:55:37;;;;;;;1.65;0.80;;;;;;;12.20;92.30;101289.56;4993325;28;20058;-84
2021/09/04 06:58:10;;;;;;;1.02;0.73;;;;;;;12.30;95.35;101298.81;4991752;28;20050;-84
2021/09/04 07:00:43;;;;;;;1.23;0.82;;;;;;;12.33;92.47;101301.00;4993431;28;20051;-84
2021/09/04 07:03:23;;;;;;;1.67;0.70;;;;;;;12.33;90.67;101292.81;4993946;28;20785;-84
2021/09/04 07:05:58;;;;;;;1.23;0.90;;;;;;;12.35;90.84;101296.88;4991082;28;20061;-82
2021/09/04 07:08:31;;;;;;;1.15;0.70;;;;;;;12.44;92.93;101294.41;4982130;28;20050;-85
2021/09/04 07:11:05;;;;;;;0.70;0.70;;;;;;;12.50;93.23;101293.31;4993167;28;20120;-84
2021/09/04 07:13:38;;;;;;;2.13;1.00;;;;;;;12.47;90.31;101291.13;4992419;28;20046;-85
2021/09/04 07:16:11;;;;;;;0.85;0.70;;;;;;;12.57;93.49;101293.03;4994463;28;20046;-86
2021/09/04 07:18:44;;;;;;;1.45;0.80;;;;;;;12.57;92.03;101293.03;4994159;28;20400;-84
2021/09/04 07:21:19;;;;;;;1.67;0.93;;;;;;;12.69;92.14;101298.16;4992703;28;20446;-84
2021/09/04 07:23:52;;;;;;;1.42;0.80;;;;;;;12.69;90.92;101295.41;4992632;28;20056;-84
2021/09/04 07:26:25;;;;;;;1.17;0.80;;;;;;;12.74;91.76;101300.88;4992632;28;20054;-85
2021/09/04 07:28:58;;;;;;;1.20;0.80;;;;;;;12.83;90.10;101307.41;4994147;28;20054;-86
2021/09/04 07:31:27;;;;;;;1.10;0.70;;;;;;;12.72;90.09;101301.16;4992116;28;20050;-84
2021/09/04 07:34:00;;;;;;;2.25;0.90;;;;;;;12.84;91.47;101314.50;4992770;28;20046;-83
2021/09/04 07:36:35;;;;;;;1.42;0.88;;;;;;;12.98;91.68;101311.13;4993827;28;20073;-85
2021/09/04 07:39:08;;;;;;;2.38;1.00;;;;;;;13.02;90.47;101309.47;4987379;28;20683;-85
2021/09/04 07:41:41;;;;;;;0.82;0.75;;;;;;;13.06;90.29;101294.16;4993203;28;20096;-84
2021/09/04 07:44:14;;;;;;;1.17;0.73;;;;;;;13.27;92.31;101313.97;4993140;28;20046;-85
2021/09/04 07:46:47;;;;;;;0.90;0.73;;;;;;;13.34;88.93;101313.69;4993800;28;20065;-86
2021/09/04 07:49:20;;;;;;;1.30;0.80;;;;;;;13.33;85.85;101318.34;4989044;28;20517;-85
2021/09/04 07:51:50;;;;;;;0.88;0.80;;;;;;;13.42;87.53;101326.78;4990713;28;20054;-83
2021/09/04 07:54:23;;;;;;;1.50;0.80;;;;;;;13.55;88.55;101319.88;4992747;28;20046;-86
2021/09/04 07:56:56;;;;;;;3.35;0.80;;;;;;;13.59;88.60;101313.53;4992774;28;20058;-87
2021/09/04 07:59:29;;;;;;;0.95;0.82;;;;;;;13.70;88.20;101329.88;4993567;28;20513;-85
2021/09/04 08:02:03;;;;;;;1.05;0.63;;;;;;;13.68;86.22;101321.16;4993524;28;20041;-85
2021/09/04 08:04:36;;;;;;;1.75;0.80;;;;;;;13.76;86.71;101324.06;4992432;28;20058;-85
2021/09/04 08:07:11;;;;;;;0.95;0.80;;;;;;;13.92;85.80;101316.56;4993651;28;20046;-85
2021/09/04 08:09:39;;;;;;;1.30;0.90;;;;;;;13.84;86.21;101322.66;4993792;28;20050;-84
2021/09/04 08:12:12;;;;;;;1.38;0.80;;;;;;;13.82;86.33;101330.31;4987207;28;20054;-86
2021/09/04 08:14:45;;;;;;;2.67;0.90;;;;;;;13.88;85.21;101325.63;4987831;28;20046;-87
2021/09/04 08:17:13;;;;;;;1.27;0.90;;;;;;;13.89;86.94;101328.09;4985250;28;20135;-85
2021/09/04 08:19:46;;;;;;;1.85;0.82;;;;;;;14.02;85.72;101334.00;4979102;28;20061;-85
2021/09/04 08:22:27;;;;;;;1.05;0.80;;;;;;;13.94;83.10;101327.22;4979439;28;20050;-86
2021/09/04 08:25:01;;;;;;;0.85;0.70;;;;;;;13.92;83.58;101337.63;4985107;28;20058;-84
2021/09/04 08:27:35;;;;;;;0.95;0.73;;;;;;;13.96;80.63;101335.94;4975508;28;20054;-85
2021/09/04 08:30:09;;;;;;;1.25;0.80;;;;;;;14.01;82.05;101332.38;4976286;28;20054;-81
2021/09/04 08:32:43;;;;;;;0.75;0.75;;;;;;;14.10;83.67;101341.59;4975732;28;20038;-85
2021/09/04 08:35:17;;;;;;;1.35;0.80;;;;;;;14.22;83.07;101352.16;4977533;28;20046;-85
2021/09/04 08:37:53;;;;;;;0.85;0.77;;;;;;;14.23;82.59;101351.06;4977236;28;20050;-84
2021/09/04 08:40:27;;;;;;;0.60;0.60;;;;;;;14.20;82.36;101352.44;4976556;28;20077;-84
2021/09/04 08:43:01;;;;;;;1.10;0.75;;;;;;;14.27;79.51;101357.59;4976715;28;20109;-83
2021/09/04 08:45:36;;;;;;;1.55;0.80;;;;;;;14.25;80.94;101355.16;4977958;28;20054;-82
2021/09/04 08:48:11;;;;;;;1.60;0.75;;;;;;;14.21;82.39;101356.84;4985622;28;20502;-84
2021/09/04 08:50:44;;;;;;;1.05;0.80;;;;;;;14.22;82.33;101360.38;4979327;28;21332;-84
2021/09/04 08:53:21;;;;;;;2.42;1.50;;;;;;;14.21;81.48;101361.47;4977187;28;20046;-82
2021/09/04 08:55:54;;;;;;;1.65;1.00;;;;;;;14.17;81.22;101361.25;4975753;28;20058;-83
2021/09/04 08:58:27;;;;;;;0.70;0.70;;;;;;;14.40;80.05;101367.03;4981107;28;20058;-82
2021/09/04 09:00:56;;;;;;;1.90;0.88;;;;;;;14.27;79.30;101361.13;4990569;28;20061;-83
2021/09/04 09:03:29;;;;;;;1.63;0.90;;;;;;;14.17;81.39;101361.25;4977136;28;20065;-82
2021/09/04 09:06:11;;;;;;;1.67;0.93;;;;;;;14.33;83.30;101374.78;4977873;28;20732;-82
2021/09/04 09:08:45;;;;;;;1.10;0.82;;;;;;;14.15;81.79;101366.19;4976620;28;20726;-84
2021/09/04 09:11:13;;;;;;;1.27;0.70;;;;;;;14.32;81.97;101376.72;4977490;28;20470;-83
2021/09/04 09:13:48;;;;;;;1.67;0.90;;;;;;;14.31;81.63;101380.56;4979352;28;20046;-84
2021/09/04 09:16:23;;;;;;;1.88;1.00;;;;;;;14.46;80.19;101379.59;4978009;28;20515;-84
2021/09/04 09:19:00;;;;;;;1.35;0.80;;;;;;;14.45;80.45;101377.97;4979131;28;20046;-83
2021/09/04 09:21:32;;;;;;;1.00;0.80;;;;;;;14.35;81.35;101381.63;4972522;28;20058;-81
2021/09/04 09:24:12;;;;;;;0.90;0.75;;;;;;;14.41;82.15;101382.38;4978401;28;20116;-82
2021/09/04 09:26:50;;;;;;;1.63;0.90;;;;;;;14.31;82.70;101374.25;4980728;28;20042;-82
2021/09/04 09:29:23;;;;;;;1.73;0.95;;;;;;;14.20;81.85;101384.50;4978661;28;20061;-83
2021/09/04 09:32:01;;;;;;;1.67;0.90;;;;;;;14.28;83.13;101372.94;4979412;28;20050;-84
2021/09/04 09:34:38;;;;;;;1.30;0.80;;;;;;;14.48;83.02;101380.13;4978493;28;20058;-83
2021/09/04 09:37:13;;;;;;;;;;;;;;;14.60;82.16;101382.47;4976586;28;20509;-82
2021/09/04 09:39:45;;;;;;;1.05;0.80;;;;;;;14.82;77.40;101373.78;4978353;28;19929;-84
2021/09/04 09:42:19;;;;;;;1.10;0.80;;;;;;;14.55;79.38;101382.50;4973112;28;20058;-82
2021/09/04 09:44:56;;;;;;;1.25;0.80;;;;;;;14.60;79.75;101369.56;4977484;28;20042;-82
2021/09/04 09:47:30;;;;;;;1.38;0.80;;;;;;;14.66;74.26;101362.16;4975590;28;20043;-82
2021/09/04 09:50:03;;;;;;;1.77;0.82;;;;;;;14.77;77.29;101368.34;4977814;28;20058;-81
2021/09/04 09:52:37;;;;;;;1.45;0.82;;;;;;;14.81;78.65;101369.38;4974460;28;21336;-83
2021/09/04 09:55:12;;;;;;;1.20;0.70;;;;;;;15.05;80.53;101371.28;4976402;28;20057;-82
2021/09/04 09:57:41;;;;;;;1.38;0.60;;;;;;;15.05;75.59;101363.91;4975810;28;20054;-82
2021/09/04 10:00:17;;;;;;;1.55;0.70;;;;;;;15.19;78.97;101366.75;4975350;28;20073;-83
2021/09/04 10:02:52;;;;;;;0.60;0.60;;;;;;;15.18;78.81;101369.75;4977509;28;20050;-84
2021/09/04 10:05:26;;;;;;;0.63;0.52;;;;;;;15.32;75.77;101370.69;4980273;28;20058;-83
2021/09/04 10:08:00;;;;;;;0.55;0.55;;;;;;;15.34;74.93;101373.94;4975010;28;20054;-83
2021/09/04 10:10:37;;;;;;;1.90;0.70;;;;;;;15.15;74.15;101382.16;4973529;28;20069;-82
2021/09/04 10:13:12;;;;;;;0.63;0.50;;;;;;;15.35;75.40;101383.78;4974120;28;20050;-83
2021/09/04 10:15:43;;;;;;;1.13;0.70;;;;;;;15.38;75.28;101377.72;4981297;28;20070;-82
2021/09/04 10:18:16;;;;;;;1.00;0.70;;;;;;;15.60;78.35;101374.38;4977749;28;20066;-84
2021/09/04 10:21:07;;;;;;;0.40;0.40;;;;;;;15.77;73.07;101384.84;4979703;28;20045;-84
2021/09/04 10:23:42;;;;;;;0.98;0.60;;;;;;;15.83;72.64;101379.31;4978642;28;20066;-84
2021/09/04 10:26:27;;;;;;;0.65;0.60;;;;;;;15.61;72.13;101387.00;4977762;28;20051;-83
2021/09/04 10:29:06;;;;;;;0.70;0.50;;;;;;;15.89;69.18;101389.09;4976726;28;20073;-83
2021/09/04 10:31:44;;;;;;;0.90;0.60;;;;;;;15.99;69.91;101388.91;4978674;28;20051;-82
2021/09/04 10:34:29;;;;;;;1.02;0.55;;;;;;;15.90;70.46;101380.56;4985720;28;20447;-84
2021/09/04 10:36:59;;;;;;;0.77;0.50;;;;;;;16.03;73.81;101378.97;4984248;28;20050;-82
2021/09/04 10:40:02;;;;;;;0.52;0.50;;;;;;;15.93;70.77;101377.22;4983932;28;21372;-84
2021/09/04 10:42:48;;;;;;;0.80;0.50;;;;;;;15.75;67.64;101367.84;4979998;28;20046;-83
2021/09/04 10:45:28;;;;;;;0.70;0.50;;;;;;;15.73;69.84;101369.25;4978252;28;20050;-83
2021/09/04 10:47:57;;;;;;;0.60;0.45;;;;;;;15.76;72.78;101379.66;4977421;28;20065;-82
2021/09/04 10:50:27;;;;;;;1.05;0.50;;;;;;;15.52;69.12;101371.50;4981248;28;20061;-81
2021/09/04 10:53:05;;;;;;;1.17;0.60;;;;;;;15.61;70.91;101364.25;4978279;28;20069;-83
2021/09/04 10:55:40;;;;;;;1.17;0.60;;;;;;;15.80;73.54;101375.25;4984509;28;20792;-83
2021/09/04 10:58:16;;;;;;;0.82;0.60;;;;;;;15.93;70.78;101368.97;4980847;28;20054;-80
2021/09/04 11:00:50;;;;;;;0.50;0.50;;;;;;;15.98;71.55;101376.34;4981654;28;20060;-82
2021/09/04 11:03:24;;;;;;;0.77;0.50;;;;;;;15.95;71.87;101365.94;4981235;28;20058;-85
2021/09/04 11:06:01;;;;;;;1.02;0.50;;;;;;;15.79;71.24;101365.34;4980590;28;20066;-83
2021/09/04 11:08:35;;;;;;;1.15;0.55;;;;;;;15.68;70.82;101372.09;4982295;28;20061;-82
2021/09/04 11:11:16;;;;;;;0.63;0.50;;;;;;;15.79;74.22;101370.81;4979735;28;20050;-83
2021/09/04 11:13:52;;;;;;;1.13;0.60;;;;;;;15.81;75.31;101368.63;4977995;28;20051;-82
2021/09/04 11:16:34;;;;;;;0.90;0.57;;;;;;;15.88;75.79;101373.72;4977107;28;20057;-81
2021/09/04 11:19:12;;;;;;;0.60;0.50;;;;;;;15.76;77.24;101366.75;4976376;28;20061;-83
2021/09/04 11:22:06;;;;;;;0.43;0.43;;;;;;;15.83;75.46;101380.13;4983157;28;20063;-83
2021/09/04 11:24:41;;;;;;;0.90;0.50;;;;;;;15.79;73.20;101379.91;4979798;28;21847;-84
2021/09/04 11:27:16;;;;;;;2.15;0.65;;;;;;;15.80;71.11;101384.28;4977979;28;20054;-83
2021/09/04 11:29:52;;;;;;;1.13;0.70;;;;;;;16.22;73.55;101380.88;4977249;28;20050;-81
2021/09/04 11:32:29;;;;;;;0.77;0.57;;;;;;;16.40;73.21;101381.94;4976166;28;20057;-83
2021/09/04 11:35:04;;;;;;;0.55;0.50;;;;;;;16.46;73.71;101377.97;4979305;28;20061;-84
2021/09/04 11:37:33;;;;;;;0.68;0.50;;;;;;;16.32;69.74;101375.19;4978010;28;20767;-83
2021/09/04 11:40:06;;;;;;;1.95;0.63;;;;;;;16.23;69.03;101371.53;4977111;28;21287;-83
2021/09/04 11:42:41;;;;;;;1.10;0.60;;;;;;;16.37;66.98;101377.06;4975651;28;20054;-84
2021/09/04 11:45:19;;;;;;;0.85;0.55;;;;;;;16.44;70.68;101375.53;4979569;28;21136;-82
2021/09/04 11:47:50;;;;;;;1.20;0.50;;;;;;;16.44;69.38;101355.50;4978260;28;20071;-81
2021/09/04 11:50:24;;;;;;;0.70;0.60;;;;;;;16.47;68.64;101374.94;4979157;28;20065;-82
2021/09/04 11:52:58;;;;;;;1.55;0.60;;;;;;;16.28;68.51;101372.25;4977800;28;20074;-83
2021/09/04 11:55:28;;;;;;;1.17;0.50;;;;;;;16.55;70.95;101356.91;4979556;28;20046;-85